sensor_id;sensor_type;location;lat;lon;timestamp;temperature;humidity
25046;DHT22;13044;49.304;12.840;2023-02-21T00:02:24;7.60;99.90
25046;DHT22;13044;49.304;12.840;2023-02-21T00:05:11;7.50;99.90
25046;DHT22;13044;49.304;12.840;2023-02-21T00:07:57;7.50;99.90
25046;DHT22;13044;49.304;12.840;2023-02-21T00:10:43;7.50;99.90
25046;DHT22;13044;49.304;12.840;2023-02-21T00:13:29;7.40;99.90
25046;DHT22;13044;49.304;12.840;2023-02-21T00:16:16;7.40;99.90
25046;DHT22;13044;49.304;12.840;2023-02-21T00:19:03;7.40;99.90
25046;DHT22;13044;49.304;12.840;2023-02-21T00:21:50;7.40;99.90
25046;DHT22;13044;49.304;12.840;2023-02-21T00:24:37;7.40;99.90
25046;DHT22;13044;49.304;12.840;2023-02-21T00:27:24;7.30;99.90
25046;DHT22;13044;49.304;12.840;2023-02-21T00:30:11;7.30;99.90
25046;DHT22;13044;49.304;12.840;2023-02-21T00:32:57;7.40;99.90
25046;DHT22;13044;49.304;12.840;2023-02-21T00:35:42;7.40;99.90
25046;DHT22;13044;49.304;12.840;2023-02-21T00:38:28;7.30;99.90
25046;DHT22;13044;49.304;12.840;2023-02-21T00:41:13;7.30;99.90
25046;DHT22;13044;49.304;12.840;2023-02-21T00:43:58;7.30;99.90
25046;DHT22;13044;49.304;12.840;2023-02-21T00:46:43;7.30;99.90
25046;DHT22;13044;49.304;12.840;2023-02-21T00:49:28;7.40;99.90
25046;DHT22;13044;49.304;12.840;2023-02-21T00:52:13;7.30;99.90
25046;DHT22;13044;49.304;12.840;2023-02-21T00:54:59;7.20;99.90
25046;DHT22;13044;49.304;12.840;2023-02-21T00:57:44;7.10;99.90
25046;DHT22;13044;49.304;12.840;2023-02-21T01:00:29;7.20;99.90
25046;DHT22;13044;49.304;12.840;2023-02-21T01:03:15;7.20;99.90
25046;DHT22;13044;49.304;12.840;2023-02-21T01:06:00;7.10;99.90
25046;DHT22;13044;49.304;12.840;2023-02-21T01:08:46;7.00;99.90
25046;DHT22;13044;49.304;12.840;2023-02-21T01:11:32;7.00;99.90
25046;DHT22;13044;49.304;12.840;2023-02-21T01:14:18;7.00;99.90
25046;DHT22;13044;49.304;12.840;2023-02-21T01:17:03;7.10;99.90
25046;DHT22;13044;49.304;12.840;2023-02-21T01:19:48;7.10;99.90
25046;DHT22;13044;49.304;12.840;2023-02-21T01:22:33;7.10;99.90
25046;DHT22;13044;49.304;12.840;2023-02-21T01:25:19;7.10;99.90
25046;DHT22;13044;49.304;12.840;2023-02-21T01:28:04;7.10;99.90
25046;DHT22;13044;49.304;12.840;2023-02-21T01:30:51;7.00;99.90
25046;DHT22;13044;49.304;12.840;2023-02-21T01:33:40;7.00;99.90
25046;DHT22;13044;49.304;12.840;2023-02-21T01:36:26;6.90;99.90
25046;DHT22;13044;49.304;12.840;2023-02-21T01:39:11;6.90;99.90
25046;DHT22;13044;49.304;12.840;2023-02-21T01:41:58;6.80;99.90
25046;DHT22;13044;49.304;12.840;2023-02-21T01:44:45;6.70;99.90
25046;DHT22;13044;49.304;12.840;2023-02-21T01:47:32;6.70;99.90
25046;DHT22;13044;49.304;12.840;2023-02-21T01:50:24;6.60;99.90
25046;DHT22;13044;49.304;12.840;2023-02-21T01:53:22;6.60;99.90
25046;DHT22;13044;49.304;12.840;2023-02-21T01:56:09;6.60;99.90
25046;DHT22;13044;49.304;12.840;2023-02-21T01:58:58;6.50;99.90
25046;DHT22;13044;49.304;12.840;2023-02-21T02:01:50;6.60;99.90
25046;DHT22;13044;49.304;12.840;2023-02-21T02:04:38;6.50;99.90
25046;DHT22;13044;49.304;12.840;2023-02-21T02:07:24;6.50;99.90
25046;DHT22;13044;49.304;12.840;2023-02-21T02:10:11;6.50;99.90
25046;DHT22;13044;49.304;12.840;2023-02-21T02:16:46;6.60;99.90
25046;DHT22;13044;49.304;12.840;2023-02-21T02:19:35;6.60;99.90
25046;DHT22;13044;49.304;12.840;2023-02-21T02:25:59;6.50;99.90
25046;DHT22;13044;49.304;12.840;2023-02-21T02:43:14;6.50;99.90
25046;DHT22;13044;49.304;12.840;2023-02-21T02:45:50;6.40;99.90
25046;DHT22;13044;49.304;12.840;2023-02-21T02:48:37;6.40;99.90
25046;DHT22;13044;49.304;12.840;2023-02-21T02:51:28;6.40;99.90
25046;DHT22;13044;49.304;12.840;2023-02-21T02:53:55;6.30;99.90
25046;DHT22;13044;49.304;12.840;2023-02-21T02:56:22;6.30;99.90
25046;DHT22;13044;49.304;12.840;2023-02-21T02:59:13;6.30;99.90
25046;DHT22;13044;49.304;12.840;2023-02-21T03:01:52;6.30;99.90
25046;DHT22;13044;49.304;12.840;2023-02-21T03:08:02;6.40;99.90
25046;DHT22;13044;49.304;12.840;2023-02-21T03:13:29;6.30;99.90
25046;DHT22;13044;49.304;12.840;2023-02-21T03:16:30;6.30;99.90
25046;DHT22;13044;49.304;12.840;2023-02-21T03:19:18;6.30;99.90
25046;DHT22;13044;49.304;12.840;2023-02-21T03:21:59;6.30;99.90
25046;DHT22;13044;49.304;12.840;2023-02-21T03:24:28;6.30;99.90
25046;DHT22;13044;49.304;12.840;2023-02-21T03:26:58;6.30;99.90
25046;DHT22;13044;49.304;12.840;2023-02-21T03:29:26;6.30;99.90
25046;DHT22;13044;49.304;12.840;2023-02-21T03:32:02;6.30;99.90
25046;DHT22;13044;49.304;12.840;2023-02-21T03:34:40;6.30;99.90
25046;DHT22;13044;49.304;12.840;2023-02-21T03:37:18;6.30;99.90
25046;DHT22;13044;49.304;12.840;2023-02-21T03:39:59;6.40;99.90
25046;DHT22;13044;49.304;12.840;2023-02-21T03:42:26;6.40;99.90
25046;DHT22;13044;49.304;12.840;2023-02-21T03:44:53;6.50;99.90
25046;DHT22;13044;49.304;12.840;2023-02-21T03:47:20;6.50;99.90
25046;DHT22;13044;49.304;12.840;2023-02-21T03:49:47;6.60;99.90
25046;DHT22;13044;49.304;12.840;2023-02-21T03:52:14;6.60;99.90
25046;DHT22;13044;49.304;12.840;2023-02-21T03:54:40;6.60;99.90
25046;DHT22;13044;49.304;12.840;2023-02-21T03:57:07;6.60;99.90
25046;DHT22;13044;49.304;12.840;2023-02-21T03:59:34;6.60;99.90
25046;DHT22;13044;49.304;12.840;2023-02-21T04:02:01;6.70;99.90
25046;DHT22;13044;49.304;12.840;2023-02-21T04:04:28;6.60;99.90
25046;DHT22;13044;49.304;12.840;2023-02-21T04:06:55;6.70;99.90
25046;DHT22;13044;49.304;12.840;2023-02-21T04:09:21;6.70;99.90
25046;DHT22;13044;49.304;12.840;2023-02-21T04:11:48;6.70;99.90
25046;DHT22;13044;49.304;12.840;2023-02-21T04:14:15;6.70;99.90
25046;DHT22;13044;49.304;12.840;2023-02-21T04:16:42;6.70;99.90
25046;DHT22;13044;49.304;12.840;2023-02-21T04:19:09;6.70;99.90
25046;DHT22;13044;49.304;12.840;2023-02-21T04:21:36;6.70;99.90
25046;DHT22;13044;49.304;12.840;2023-02-21T04:24:03;6.70;99.90
25046;DHT22;13044;49.304;12.840;2023-02-21T04:26:30;6.60;99.90
25046;DHT22;13044;49.304;12.840;2023-02-21T04:28:57;6.60;99.90
25046;DHT22;13044;49.304;12.840;2023-02-21T04:31:23;6.50;99.90
25046;DHT22;13044;49.304;12.840;2023-02-21T04:33:50;6.50;99.90
25046;DHT22;13044;49.304;12.840;2023-02-21T04:36:31;6.40;99.90
25046;DHT22;13044;49.304;12.840;2023-02-21T04:38:58;6.50;99.90
25046;DHT22;13044;49.304;12.840;2023-02-21T04:41:25;6.50;99.90
25046;DHT22;13044;49.304;12.840;2023-02-21T04:43:52;6.50;99.90
25046;DHT22;13044;49.304;12.840;2023-02-21T04:46:19;6.40;99.90
25046;DHT22;13044;49.304;12.840;2023-02-21T04:48:48;6.50;99.90
25046;DHT22;13044;49.304;12.840;2023-02-21T04:51:18;6.40;99.90
25046;DHT22;13044;49.304;12.840;2023-02-21T04:53:47;6.40;99.90
25046;DHT22;13044;49.304;12.840;2023-02-21T04:56:18;6.40;99.90
25046;DHT22;13044;49.304;12.840;2023-02-21T04:58:47;6.50;99.90
25046;DHT22;13044;49.304;12.840;2023-02-21T05:01:15;6.50;99.90
25046;DHT22;13044;49.304;12.840;2023-02-21T05:03:44;6.50;99.90
25046;DHT22;13044;49.304;12.840;2023-02-21T05:06:22;6.50;99.90
25046;DHT22;13044;49.304;12.840;2023-02-21T05:08:50;6.50;99.90
25046;DHT22;13044;49.304;12.840;2023-02-21T05:11:18;6.60;99.90
25046;DHT22;13044;49.304;12.840;2023-02-21T05:13:46;6.60;99.90
25046;DHT22;13044;49.304;12.840;2023-02-21T05:16:13;6.60;99.90
25046;DHT22;13044;49.304;12.840;2023-02-21T05:18:41;6.60;99.90
25046;DHT22;13044;49.304;12.840;2023-02-21T05:21:09;6.60;99.90
25046;DHT22;13044;49.304;12.840;2023-02-21T05:23:36;6.60;99.90
25046;DHT22;13044;49.304;12.840;2023-02-21T05:26:09;6.60;99.90
25046;DHT22;13044;49.304;12.840;2023-02-21T05:28:37;6.60;99.90
25046;DHT22;13044;49.304;12.840;2023-02-21T05:31:06;6.60;99.90
25046;DHT22;13044;49.304;12.840;2023-02-21T05:33:33;6.60;99.90
25046;DHT22;13044;49.304;12.840;2023-02-21T05:36:00;6.60;99.90
25046;DHT22;13044;49.304;12.840;2023-02-21T05:38:27;6.60;99.90
25046;DHT22;13044;49.304;12.840;2023-02-21T05:40:54;6.60;99.90
25046;DHT22;13044;49.304;12.840;2023-02-21T05:43:21;6.70;99.90
25046;DHT22;13044;49.304;12.840;2023-02-21T05:45:48;6.70;99.90
25046;DHT22;13044;49.304;12.840;2023-02-21T05:48:15;6.70;99.90
25046;DHT22;13044;49.304;12.840;2023-02-21T05:50:41;6.70;99.90
25046;DHT22;13044;49.304;12.840;2023-02-21T05:53:10;6.70;99.90
25046;DHT22;13044;49.304;12.840;2023-02-21T05:55:37;6.70;99.90
25046;DHT22;13044;49.304;12.840;2023-02-21T05:58:04;6.70;99.90
25046;DHT22;13044;49.304;12.840;2023-02-21T06:00:31;6.70;99.90
25046;DHT22;13044;49.304;12.840;2023-02-21T06:02:57;6.70;99.90
25046;DHT22;13044;49.304;12.840;2023-02-21T06:05:25;6.70;99.90
25046;DHT22;13044;49.304;12.840;2023-02-21T06:07:52;6.70;99.90
25046;DHT22;13044;49.304;12.840;2023-02-21T06:10:19;6.70;99.90
25046;DHT22;13044;49.304;12.840;2023-02-21T06:12:46;6.80;99.90
25046;DHT22;13044;49.304;12.840;2023-02-21T06:15:13;6.80;99.90
25046;DHT22;13044;49.304;12.840;2023-02-21T06:17:41;6.80;99.90
25046;DHT22;13044;49.304;12.840;2023-02-21T06:20:13;6.80;99.90
25046;DHT22;13044;49.304;12.840;2023-02-21T06:22:42;6.80;99.90
25046;DHT22;13044;49.304;12.840;2023-02-21T06:25:10;6.80;99.90
25046;DHT22;13044;49.304;12.840;2023-02-21T06:27:37;6.80;99.90
25046;DHT22;13044;49.304;12.840;2023-02-21T06:30:04;6.80;99.90
25046;DHT22;13044;49.304;12.840;2023-02-21T06:32:32;6.80;99.90
25046;DHT22;13044;49.304;12.840;2023-02-21T06:35:00;6.80;99.90
25046;DHT22;13044;49.304;12.840;2023-02-21T06:37:27;6.80;99.90
25046;DHT22;13044;49.304;12.840;2023-02-21T06:39:55;6.90;99.90
25046;DHT22;13044;49.304;12.840;2023-02-21T06:42:23;6.90;99.90
25046;DHT22;13044;49.304;12.840;2023-02-21T06:44:51;6.90;99.90
25046;DHT22;13044;49.304;12.840;2023-02-21T06:47:19;6.90;99.90
25046;DHT22;13044;49.304;12.840;2023-02-21T06:49:47;7.00;99.90
25046;DHT22;13044;49.304;12.840;2023-02-21T06:52:14;7.00;99.90
25046;DHT22;13044;49.304;12.840;2023-02-21T06:54:43;7.00;99.90
25046;DHT22;13044;49.304;12.840;2023-02-21T06:57:12;7.10;99.90
25046;DHT22;13044;49.304;12.840;2023-02-21T06:59:39;7.10;99.90
25046;DHT22;13044;49.304;12.840;2023-02-21T07:02:15;7.20;99.90
25046;DHT22;13044;49.304;12.840;2023-02-21T07:04:46;7.20;99.90
25046;DHT22;13044;49.304;12.840;2023-02-21T07:07:14;7.20;99.90
25046;DHT22;13044;49.304;12.840;2023-02-21T07:09:41;7.20;99.90
25046;DHT22;13044;49.304;12.840;2023-02-21T07:12:09;7.30;99.90
25046;DHT22;13044;49.304;12.840;2023-02-21T07:14:36;7.30;99.90
25046;DHT22;13044;49.304;12.840;2023-02-21T07:17:04;7.30;99.90
25046;DHT22;13044;49.304;12.840;2023-02-21T07:19:31;7.40;99.90
25046;DHT22;13044;49.304;12.840;2023-02-21T07:21:59;7.40;99.90
25046;DHT22;13044;49.304;12.840;2023-02-21T07:24:26;7.30;99.90
25046;DHT22;13044;49.304;12.840;2023-02-21T07:26:53;7.30;99.90
25046;DHT22;13044;49.304;12.840;2023-02-21T07:29:22;7.20;99.90
25046;DHT22;13044;49.304;12.840;2023-02-21T07:31:51;7.30;99.90
25046;DHT22;13044;49.304;12.840;2023-02-21T07:34:18;7.30;99.90
25046;DHT22;13044;49.304;12.840;2023-02-21T07:36:49;7.40;99.90
25046;DHT22;13044;49.304;12.840;2023-02-21T07:39:18;7.50;99.90
25046;DHT22;13044;49.304;12.840;2023-02-21T07:41:45;7.70;99.90
25046;DHT22;13044;49.304;12.840;2023-02-21T07:44:12;7.70;99.90
25046;DHT22;13044;49.304;12.840;2023-02-21T07:46:38;7.80;99.90
25046;DHT22;13044;49.304;12.840;2023-02-21T07:49:08;7.90;99.90
25046;DHT22;13044;49.304;12.840;2023-02-21T07:51:36;8.00;99.90
25046;DHT22;13044;49.304;12.840;2023-02-21T07:54:03;8.10;99.90
25046;DHT22;13044;49.304;12.840;2023-02-21T07:56:31;8.20;99.90
25046;DHT22;13044;49.304;12.840;2023-02-21T07:58:59;8.20;99.90
25046;DHT22;13044;49.304;12.840;2023-02-21T08:01:26;8.30;99.90
25046;DHT22;13044;49.304;12.840;2023-02-21T08:03:55;8.30;99.90
25046;DHT22;13044;49.304;12.840;2023-02-21T08:06:22;8.40;99.90
25046;DHT22;13044;49.304;12.840;2023-02-21T08:08:50;8.50;99.90
25046;DHT22;13044;49.304;12.840;2023-02-21T08:11:17;8.50;99.90
25046;DHT22;13044;49.304;12.840;2023-02-21T08:13:44;8.50;99.90
25046;DHT22;13044;49.304;12.840;2023-02-21T08:16:11;8.60;99.90
25046;DHT22;13044;49.304;12.840;2023-02-21T08:18:40;8.70;99.90
25046;DHT22;13044;49.304;12.840;2023-02-21T08:21:10;8.70;99.90
25046;DHT22;13044;49.304;12.840;2023-02-21T08:23:38;8.70;99.90
25046;DHT22;13044;49.304;12.840;2023-02-21T08:26:05;8.80;99.90
25046;DHT22;13044;49.304;12.840;2023-02-21T08:28:33;8.80;99.90
25046;DHT22;13044;49.304;12.840;2023-02-21T08:31:01;8.90;99.90
25046;DHT22;13044;49.304;12.840;2023-02-21T08:33:28;9.10;99.90
25046;DHT22;13044;49.304;12.840;2023-02-21T08:35:57;9.30;99.90
25046;DHT22;13044;49.304;12.840;2023-02-21T08:38:24;9.50;99.90
25046;DHT22;13044;49.304;12.840;2023-02-21T08:40:52;9.50;99.90
25046;DHT22;13044;49.304;12.840;2023-02-21T08:43:24;9.60;99.90
25046;DHT22;13044;49.304;12.840;2023-02-21T08:45:53;9.60;99.90
25046;DHT22;13044;49.304;12.840;2023-02-21T08:48:20;9.70;99.90
25046;DHT22;13044;49.304;12.840;2023-02-21T08:50:48;9.70;99.90
25046;DHT22;13044;49.304;12.840;2023-02-21T08:53:19;9.70;99.90
25046;DHT22;13044;49.304;12.840;2023-02-21T08:55:46;9.80;99.90
25046;DHT22;13044;49.304;12.840;2023-02-21T08:58:14;9.90;99.90
25046;DHT22;13044;49.304;12.840;2023-02-21T09:00:41;10.00;99.90
25046;DHT22;13044;49.304;12.840;2023-02-21T09:03:08;10.00;99.90
25046;DHT22;13044;49.304;12.840;2023-02-21T09:05:35;10.10;99.90
25046;DHT22;13044;49.304;12.840;2023-02-21T09:08:02;10.30;99.90
25046;DHT22;13044;49.304;12.840;2023-02-21T09:10:32;10.40;99.90
25046;DHT22;13044;49.304;12.840;2023-02-21T09:13:02;10.60;99.90
25046;DHT22;13044;49.304;12.840;2023-02-21T09:15:29;10.60;99.90
25046;DHT22;13044;49.304;12.840;2023-02-21T09:17:57;10.70;99.90
25046;DHT22;13044;49.304;12.840;2023-02-21T09:20:26;10.70;99.90
25046;DHT22;13044;49.304;12.840;2023-02-21T09:22:55;10.90;99.90
25046;DHT22;13044;49.304;12.840;2023-02-21T09:25:23;11.10;99.90
25046;DHT22;13044;49.304;12.840;2023-02-21T09:27:54;11.10;99.90
25046;DHT22;13044;49.304;12.840;2023-02-21T09:30:23;11.30;99.90
25046;DHT22;13044;49.304;12.840;2023-02-21T09:32:53;11.40;99.90
25046;DHT22;13044;49.304;12.840;2023-02-21T09:35:21;11.30;99.90
25046;DHT22;13044;49.304;12.840;2023-02-21T09:37:50;11.50;99.90
25046;DHT22;13044;49.304;12.840;2023-02-21T09:43:23;11.30;99.90
25046;DHT22;13044;49.304;12.840;2023-02-21T09:46:03;11.30;99.90
25046;DHT22;13044;49.304;12.840;2023-02-21T09:48:33;11.20;99.90
25046;DHT22;13044;49.304;12.840;2023-02-21T09:51:04;11.20;99.90
25046;DHT22;13044;49.304;12.840;2023-02-21T09:53:38;11.30;99.90
25046;DHT22;13044;49.304;12.840;2023-02-21T09:56:33;11.10;99.90
25046;DHT22;13044;49.304;12.840;2023-02-21T09:59:11;11.30;99.90
25046;DHT22;13044;49.304;12.840;2023-02-21T10:07:35;11.20;99.90
25046;DHT22;13044;49.304;12.840;2023-02-21T10:10:11;11.30;99.90
25046;DHT22;13044;49.304;12.840;2023-02-21T10:12:52;11.30;99.90
25046;DHT22;13044;49.304;12.840;2023-02-21T10:15:48;11.30;99.90
25046;DHT22;13044;49.304;12.840;2023-02-21T10:21:47;11.60;99.90
25046;DHT22;13044;49.304;12.840;2023-02-21T10:24:19;11.60;99.90
25046;DHT22;13044;49.304;12.840;2023-02-21T10:27:07;11.50;99.90
25046;DHT22;13044;49.304;12.840;2023-02-21T10:32:38;11.50;99.90
25046;DHT22;13044;49.304;12.840;2023-02-21T10:35:05;11.40;99.90
25046;DHT22;13044;49.304;12.840;2023-02-21T10:37:46;11.40;99.90
25046;DHT22;13044;49.304;12.840;2023-02-21T10:43:15;11.50;99.90
25046;DHT22;13044;49.304;12.840;2023-02-21T10:48:57;11.40;99.90
25046;DHT22;13044;49.304;12.840;2023-02-21T10:51:32;11.20;99.90
25046;DHT22;13044;49.304;12.840;2023-02-21T10:54:22;11.50;99.90
25046;DHT22;13044;49.304;12.840;2023-02-21T10:56:52;11.50;99.90
25046;DHT22;13044;49.304;12.840;2023-02-21T10:59:35;11.40;99.90
25046;DHT22;13044;49.304;12.840;2023-02-21T11:02:32;11.40;99.90
25046;DHT22;13044;49.304;12.840;2023-02-21T11:05:16;11.30;99.90
25046;DHT22;13044;49.304;12.840;2023-02-21T11:08:01;11.40;99.90
25046;DHT22;13044;49.304;12.840;2023-02-21T11:10:38;11.40;99.90
25046;DHT22;13044;49.304;12.840;2023-02-21T11:13:17;11.60;99.90
25046;DHT22;13044;49.304;12.840;2023-02-21T11:15:49;11.70;99.90
25046;DHT22;13044;49.304;12.840;2023-02-21T11:18:35;11.70;99.90
25046;DHT22;13044;49.304;12.840;2023-02-21T11:23:44;11.90;99.90
25046;DHT22;13044;49.304;12.840;2023-02-21T11:26:15;11.80;99.90
25046;DHT22;13044;49.304;12.840;2023-02-21T11:28:44;11.90;99.90
25046;DHT22;13044;49.304;12.840;2023-02-21T11:31:29;12.10;99.90
25046;DHT22;13044;49.304;12.840;2023-02-21T11:34:02;12.20;99.90
25046;DHT22;13044;49.304;12.840;2023-02-21T11:36:33;12.20;99.90
25046;DHT22;13044;49.304;12.840;2023-02-21T11:42:25;12.20;99.90
25046;DHT22;13044;49.304;12.840;2023-02-21T11:45:16;12.50;99.90
25046;DHT22;13044;49.304;12.840;2023-02-21T11:48:03;12.50;99.90
25046;DHT22;13044;49.304;12.840;2023-02-21T11:50:42;12.30;99.90
25046;DHT22;13044;49.304;12.840;2023-02-21T11:53:27;12.40;99.90
25046;DHT22;13044;49.304;12.840;2023-02-21T12:02:40;12.40;99.90
25046;DHT22;13044;49.304;12.840;2023-02-21T12:11:45;12.80;99.90
25046;DHT22;13044;49.304;12.840;2023-02-21T12:14:32;12.90;99.90
25046;DHT22;13044;49.304;12.840;2023-02-21T12:28:42;12.40;99.90
25046;DHT22;13044;49.304;12.840;2023-02-21T12:37:13;12.80;99.90
25046;DHT22;13044;49.304;12.840;2023-02-21T12:40:19;12.90;99.90
25046;DHT22;13044;49.304;12.840;2023-02-21T12:46:11;12.80;99.90
25046;DHT22;13044;49.304;12.840;2023-02-21T12:49:56;12.70;99.90
25046;DHT22;13044;49.304;12.840;2023-02-21T12:55:58;12.30;99.90
25046;DHT22;13044;49.304;12.840;2023-02-21T12:58:42;12.30;99.90
25046;DHT22;13044;49.304;12.840;2023-02-21T13:01:19;12.40;99.90
25046;DHT22;13044;49.304;12.840;2023-02-21T13:06:27;12.70;99.90
25046;DHT22;13044;49.304;12.840;2023-02-21T13:15:26;12.80;99.90
25046;DHT22;13044;49.304;12.840;2023-02-21T13:18:15;12.90;99.90
25046;DHT22;13044;49.304;12.840;2023-02-21T13:20:55;13.10;99.90
25046;DHT22;13044;49.304;12.840;2023-02-21T13:29:32;13.50;99.90
25046;DHT22;13044;49.304;12.840;2023-02-21T13:32:13;13.60;99.90
25046;DHT22;13044;49.304;12.840;2023-02-21T13:35:00;13.80;99.90
25046;DHT22;13044;49.304;12.840;2023-02-21T13:37:30;13.80;99.90
25046;DHT22;13044;49.304;12.840;2023-02-21T13:40:05;13.70;99.90
25046;DHT22;13044;49.304;12.840;2023-02-21T13:42:42;13.70;99.90
25046;DHT22;13044;49.304;12.840;2023-02-21T13:45:14;13.80;99.90
25046;DHT22;13044;49.304;12.840;2023-02-21T13:53:20;13.90;99.90
25046;DHT22;13044;49.304;12.840;2023-02-21T13:56:11;14.10;99.90
25046;DHT22;13044;49.304;12.840;2023-02-21T13:58:46;14.00;99.90
25046;DHT22;13044;49.304;12.840;2023-02-21T14:01:40;13.90;99.90
25046;DHT22;13044;49.304;12.840;2023-02-21T14:07:45;13.80;99.90
25046;DHT22;13044;49.304;12.840;2023-02-21T14:10:24;13.70;99.90
25046;DHT22;13044;49.304;12.840;2023-02-21T14:12:55;13.70;99.90
25046;DHT22;13044;49.304;12.840;2023-02-21T14:15:35;13.50;99.90
25046;DHT22;13044;49.304;12.840;2023-02-21T14:18:04;13.50;99.90
25046;DHT22;13044;49.304;12.840;2023-02-21T14:20:35;13.70;99.90
25046;DHT22;13044;49.304;12.840;2023-02-21T14:23:03;13.50;99.90
25046;DHT22;13044;49.304;12.840;2023-02-21T14:25:33;13.40;99.90
25046;DHT22;13044;49.304;12.840;2023-02-21T14:37:39;13.20;99.90
25046;DHT22;13044;49.304;12.840;2023-02-21T14:52:12;13.10;99.90
25046;DHT22;13044;49.304;12.840;2023-02-21T15:06:44;12.80;99.90
25046;DHT22;13044;49.304;12.840;2023-02-21T15:09:21;12.70;99.90
25046;DHT22;13044;49.304;12.840;2023-02-21T15:11:48;12.80;99.90
25046;DHT22;13044;49.304;12.840;2023-02-21T15:14:22;12.80;99.90
25046;DHT22;13044;49.304;12.840;2023-02-21T15:17:11;12.70;99.90
25046;DHT22;13044;49.304;12.840;2023-02-21T15:19:59;12.70;99.90
25046;DHT22;13044;49.304;12.840;2023-02-21T15:22:28;12.70;99.90
25046;DHT22;13044;49.304;12.840;2023-02-21T15:25:16;12.60;99.90
25046;DHT22;13044;49.304;12.840;2023-02-21T15:33:12;12.70;99.90
25046;DHT22;13044;49.304;12.840;2023-02-21T15:35:55;12.70;99.90
25046;DHT22;13044;49.304;12.840;2023-02-21T15:38:32;12.80;99.90
25046;DHT22;13044;49.304;12.840;2023-02-21T15:43:54;12.70;99.90
25046;DHT22;13044;49.304;12.840;2023-02-21T15:49:24;12.60;99.90
25046;DHT22;13044;49.304;12.840;2023-02-21T15:51:53;12.60;99.90
25046;DHT22;13044;49.304;12.840;2023-02-21T15:54:24;12.50;99.90
25046;DHT22;13044;49.304;12.840;2023-02-21T15:57:17;12.50;99.90
25046;DHT22;13044;49.304;12.840;2023-02-21T16:06:25;12.50;99.90
25046;DHT22;13044;49.304;12.840;2023-02-21T16:11:43;12.40;99.90
25046;DHT22;13044;49.304;12.840;2023-02-21T16:14:18;12.30;99.90
25046;DHT22;13044;49.304;12.840;2023-02-21T16:16:47;12.20;99.90
25046;DHT22;13044;49.304;12.840;2023-02-21T16:19:21;12.20;99.90
25046;DHT22;13044;49.304;12.840;2023-02-21T16:21:49;12.20;99.90
25046;DHT22;13044;49.304;12.840;2023-02-21T16:24:29;12.10;99.90
25046;DHT22;13044;49.304;12.840;2023-02-21T16:27:04;12.10;99.90
25046;DHT22;13044;49.304;12.840;2023-02-21T16:29:33;12.10;99.90
25046;DHT22;13044;49.304;12.840;2023-02-21T16:32:01;12.00;99.90
25046;DHT22;13044;49.304;12.840;2023-02-21T16:34:32;12.00;99.90
25046;DHT22;13044;49.304;12.840;2023-02-21T16:37:04;12.00;99.90
25046;DHT22;13044;49.304;12.840;2023-02-21T16:39:35;11.80;99.90
25046;DHT22;13044;49.304;12.840;2023-02-21T16:42:02;11.80;99.90
25046;DHT22;13044;49.304;12.840;2023-02-21T16:44:30;11.80;99.90
25046;DHT22;13044;49.304;12.840;2023-02-21T16:46:57;11.70;99.90
25046;DHT22;13044;49.304;12.840;2023-02-21T16:49:26;11.60;99.90
25046;DHT22;13044;49.304;12.840;2023-02-21T16:51:54;11.60;99.90
25046;DHT22;13044;49.304;12.840;2023-02-21T16:54:21;11.50;99.90
25046;DHT22;13044;49.304;12.840;2023-02-21T16:56:50;11.50;99.90
25046;DHT22;13044;49.304;12.840;2023-02-21T16:59:20;11.50;99.90
25046;DHT22;13044;49.304;12.840;2023-02-21T17:01:49;11.30;99.90
25046;DHT22;13044;49.304;12.840;2023-02-21T17:04:22;11.40;99.90
25046;DHT22;13044;49.304;12.840;2023-02-21T17:07:00;11.40;99.90
25046;DHT22;13044;49.304;12.840;2023-02-21T17:09:30;11.40;99.90
25046;DHT22;13044;49.304;12.840;2023-02-21T17:12:05;11.40;99.90
25046;DHT22;13044;49.304;12.840;2023-02-21T17:14:33;11.30;99.90
25046;DHT22;13044;49.304;12.840;2023-02-21T17:17:00;11.30;99.90
25046;DHT22;13044;49.304;12.840;2023-02-21T17:19:28;11.30;99.90
25046;DHT22;13044;49.304;12.840;2023-02-21T17:21:55;11.20;99.90
25046;DHT22;13044;49.304;12.840;2023-02-21T17:24:24;11.20;99.90
25046;DHT22;13044;49.304;12.840;2023-02-21T17:26:52;11.20;99.90
25046;DHT22;13044;49.304;12.840;2023-02-21T17:29:21;11.20;99.90
25046;DHT22;13044;49.304;12.840;2023-02-21T17:31:52;11.20;99.90
25046;DHT22;13044;49.304;12.840;2023-02-21T17:34:21;11.20;99.90
25046;DHT22;13044;49.304;12.840;2023-02-21T17:36:50;11.20;99.90
25046;DHT22;13044;49.304;12.840;2023-02-21T17:39:19;11.20;99.90
25046;DHT22;13044;49.304;12.840;2023-02-21T17:41:48;11.10;99.90
25046;DHT22;13044;49.304;12.840;2023-02-21T17:44:18;11.10;99.90
25046;DHT22;13044;49.304;12.840;2023-02-21T17:46:54;11.20;99.90
25046;DHT22;13044;49.304;12.840;2023-02-21T17:49:25;11.10;99.90
25046;DHT22;13044;49.304;12.840;2023-02-21T17:51:53;11.10;99.90
25046;DHT22;13044;49.304;12.840;2023-02-21T17:54:22;11.10;99.90
25046;DHT22;13044;49.304;12.840;2023-02-21T17:56:50;11.10;99.90
25046;DHT22;13044;49.304;12.840;2023-02-21T17:59:18;11.00;99.90
25046;DHT22;13044;49.304;12.840;2023-02-21T18:01:45;11.00;99.90
25046;DHT22;13044;49.304;12.840;2023-02-21T18:04:13;11.00;99.90
25046;DHT22;13044;49.304;12.840;2023-02-21T18:06:41;11.00;99.90
25046;DHT22;13044;49.304;12.840;2023-02-21T18:09:10;10.90;99.90
25046;DHT22;13044;49.304;12.840;2023-02-21T18:11:37;10.90;99.90
25046;DHT22;13044;49.304;12.840;2023-02-21T18:14:05;10.90;99.90
25046;DHT22;13044;49.304;12.840;2023-02-21T18:16:33;10.80;99.90
25046;DHT22;13044;49.304;12.840;2023-02-21T18:19:00;10.80;99.90
25046;DHT22;13044;49.304;12.840;2023-02-21T18:21:29;10.80;99.90
25046;DHT22;13044;49.304;12.840;2023-02-21T18:23:56;10.80;99.90
25046;DHT22;13044;49.304;12.840;2023-02-21T18:26:23;10.80;99.90
25046;DHT22;13044;49.304;12.840;2023-02-21T18:28:51;10.70;99.90
25046;DHT22;13044;49.304;12.840;2023-02-21T18:31:19;10.60;99.90
25046;DHT22;13044;49.304;12.840;2023-02-21T18:33:47;10.60;99.90
25046;DHT22;13044;49.304;12.840;2023-02-21T18:36:15;10.50;99.90
25046;DHT22;13044;49.304;12.840;2023-02-21T18:38:42;10.40;99.90
25046;DHT22;13044;49.304;12.840;2023-02-21T18:41:14;10.40;99.90
25046;DHT22;13044;49.304;12.840;2023-02-21T18:43:44;10.40;99.90
25046;DHT22;13044;49.304;12.840;2023-02-21T18:46:15;10.40;99.90
25046;DHT22;13044;49.304;12.840;2023-02-21T18:48:48;10.40;99.90
25046;DHT22;13044;49.304;12.840;2023-02-21T18:51:17;10.30;99.90
25046;DHT22;13044;49.304;12.840;2023-02-21T18:53:47;10.30;99.90
25046;DHT22;13044;49.304;12.840;2023-02-21T18:56:17;10.30;99.90
25046;DHT22;13044;49.304;12.840;2023-02-21T18:58:46;10.20;99.90